createdAt,value
2022-07-29T00:02:48.552Z,46.29
2022-07-29T00:05:53.045Z,46.53
2022-07-29T00:08:55.433Z,46.97
2022-07-29T00:12:01.135Z,46.39
2022-07-29T00:15:05.204Z,46.28
2022-07-29T00:18:07.740Z,46.53
2022-07-29T00:21:09.859Z,46.31
2022-07-29T00:24:12.501Z,46.86
2022-07-29T00:27:14.855Z,47.01
2022-07-29T00:30:17.307Z,46.97
2022-07-29T00:33:19.426Z,46.67
2022-07-29T00:36:22.626Z,47.02
2022-07-29T00:39:24.734Z,46.94
2022-07-29T00:42:29.261Z,46.99
2022-07-29T00:45:31.575Z,46.90
2022-07-29T00:48:34.053Z,46.98
2022-07-29T00:51:39.952Z,46.80
2022-07-29T00:54:44.042Z,46.49
2022-07-29T00:57:47.215Z,46.79
2022-07-29T01:00:49.752Z,46.68
2022-07-29T01:03:52.266Z,46.91
2022-07-29T01:06:55.623Z,46.65
2022-07-29T01:09:58.066Z,46.42
2022-07-29T01:13:02.271Z,47.02
2022-07-29T01:16:11.301Z,46.88
2022-07-29T01:19:33.914Z,47.16
2022-07-29T01:22:35.971Z,47.38
2022-07-29T01:26:07.687Z,47.60
2022-07-29T01:29:42.282Z,47.53
2022-07-29T01:32:51.026Z,47.46
2022-07-29T01:35:53.325Z,47.74
2022-07-29T01:39:05.218Z,47.68
2022-07-29T01:42:49.541Z,48.01
2022-07-29T01:45:58.743Z,48.20
2022-07-29T01:49:12.535Z,47.99
2022-07-29T01:52:22.792Z,48.19
2022-07-29T01:55:30.498Z,48.15
2022-07-29T01:58:33.687Z,48.07
2022-07-29T02:01:38.233Z,48.49
2022-07-29T02:04:42.187Z,48.58
2022-07-29T02:07:47.342Z,48.79
2022-07-29T02:10:52.713Z,49.09
2022-07-29T02:13:57.502Z,49.23
2022-07-29T02:17:02.643Z,49.24
2022-07-29T02:20:06.238Z,49.27
2022-07-29T02:23:11.542Z,49.48
2022-07-29T02:26:13.773Z,49.35
2022-07-29T02:29:17.712Z,49.47
2022-07-29T02:32:22.220Z,49.38
2022-07-29T02:35:25.588Z,49.48
2022-07-29T02:38:48.835Z,49.53
2022-07-29T02:41:53.855Z,50.04
2022-07-29T02:44:56.678Z,49.70
2022-07-29T02:48:01.801Z,49.74
2022-07-29T02:51:43.928Z,49.82
2022-07-29T02:55:06.698Z,50.09
2022-07-29T02:58:23.732Z,49.71
2022-07-29T03:01:31.307Z,50.05
2022-07-29T03:04:35.321Z,50.34
2022-07-29T03:07:39.484Z,50.09
2022-07-29T03:10:45.453Z,50.31
2022-07-29T03:13:48.348Z,50.11
2022-07-29T03:16:51.841Z,50.26
2022-07-29T03:19:55.723Z,50.57
2022-07-29T03:22:58.010Z,50.66
2022-07-29T03:26:00.461Z,50.88
2022-07-29T03:29:02.616Z,50.90
2022-07-29T03:32:07.368Z,50.86
2022-07-29T03:35:10.207Z,50.86
2022-07-29T03:38:12.705Z,50.84
2022-07-29T03:41:16.154Z,50.61
2022-07-29T03:44:20.551Z,50.90
2022-07-29T03:47:43.477Z,50.44
2022-07-29T03:50:51.588Z,50.67
2022-07-29T03:53:54.392Z,50.35
2022-07-29T03:57:02.035Z,50.22
2022-07-29T04:00:06.383Z,49.86
2022-07-29T04:03:12.133Z,49.78
2022-07-29T04:06:17.420Z,49.56
2022-07-29T04:09:19.934Z,49.54
2022-07-29T04:12:22.141Z,49.64
2022-07-29T04:15:24.890Z,50.63
2022-07-29T04:18:27.062Z,56.50
2022-07-29T04:21:29.437Z,55.81
2022-07-29T04:24:31.546Z,52.04
2022-07-29T04:27:33.966Z,53.87
2022-07-29T04:30:38.052Z,53.56
2022-07-29T04:33:40.920Z,54.90
2022-07-29T04:36:43.019Z,51.93
2022-07-29T04:39:45.440Z,50.93
2022-07-29T04:42:47.917Z,50.85
2022-07-29T04:45:51.919Z,49.97
2022-07-29T04:48:54.150Z,49.33
2022-07-29T04:51:56.602Z,48.67
2022-07-29T04:54:58.745Z,43.42
2022-07-29T04:58:01.499Z,42.33
2022-07-29T05:01:05.057Z,38.67
2022-07-29T05:04:07.557Z,34.62
2022-07-29T05:07:09.689Z,31.30
2022-07-29T05:10:12.686Z,29.61
2022-07-29T05:13:14.999Z,26.63
2022-07-29T05:16:17.416Z,26.79
2022-07-29T05:19:19.642Z,25.83
2022-07-29T05:22:22.408Z,24.29
2022-07-29T05:25:43.454Z,24.16
2022-07-29T05:28:47.000Z,24.32
2022-07-29T05:31:49.187Z,23.67
2022-07-29T05:34:51.953Z,23.45
2022-07-29T05:37:54.178Z,23.50
2022-07-29T05:40:59.322Z,21.82
2022-07-29T05:44:01.498Z,22.55
2022-07-29T05:47:03.924Z,21.28
2022-07-29T05:50:06.728Z,21.32
2022-07-29T05:53:19.436Z,21.63
2022-07-29T05:56:22.612Z,20.92
2022-07-29T05:59:30.085Z,21.11
2022-07-29T06:02:32.727Z,21.38
2022-07-29T06:05:35.254Z,21.49
2022-07-29T06:08:37.876Z,20.90
2022-07-29T06:11:40.473Z,21.31
2022-07-29T06:14:42.611Z,22.63
2022-07-29T06:18:00.020Z,24.42
2022-07-29T06:21:09.537Z,26.22
2022-07-29T06:24:13.690Z,24.93
2022-07-29T06:27:17.202Z,23.37
2022-07-29T06:30:19.617Z,22.09
2022-07-29T06:33:21.749Z,21.10
2022-07-29T06:36:24.380Z,20.05
2022-07-29T06:39:27.394Z,20.41
2022-07-29T06:42:29.856Z,19.11
2022-07-29T06:45:35.378Z,18.89
2022-07-29T06:48:38.209Z,18.09
2022-07-29T06:51:40.396Z,18.61
2022-07-29T06:54:48.895Z,17.34
2022-07-29T06:57:51.368Z,17.26
2022-07-29T07:00:53.930Z,15.73
2022-07-29T07:03:56.248Z,17.02
2022-07-29T07:06:58.880Z,16.82
2022-07-29T07:10:01.047Z,17.24
2022-07-29T07:13:04.222Z,16.90
2022-07-29T07:16:06.483Z,16.34
2022-07-29T07:19:09.001Z,16.10
2022-07-29T07:22:11.126Z,16.57
2022-07-29T07:25:15.349Z,18.43
2022-07-29T07:28:17.599Z,18.51
2022-07-29T07:31:20.244Z,17.43
2022-07-29T07:34:28.144Z,17.25
2022-07-29T07:37:31.966Z,16.83
2022-07-29T07:40:34.142Z,16.33
2022-07-29T07:43:36.503Z,15.84
2022-07-29T07:46:38.619Z,16.72
2022-07-29T07:49:42.103Z,16.29
2022-07-29T07:52:55.913Z,16.60
2022-07-29T07:56:13.693Z,17.23
2022-07-29T07:59:16.770Z,17.44
2022-07-29T08:02:19.268Z,18.01
2022-07-29T08:05:21.823Z,18.75
2022-07-29T08:08:23.934Z,21.21
2022-07-29T08:11:26.380Z,21.75
2022-07-29T08:14:31.208Z,22.28
2022-07-29T08:17:35.579Z,23.37
2022-07-29T08:20:39.254Z,24.08
2022-07-29T08:23:51.536Z,24.71
2022-07-29T08:26:55.381Z,25.17
2022-07-29T08:29:58.401Z,26.88
2022-07-29T08:33:00.624Z,26.04
2022-07-29T08:36:03.858Z,26.52
2022-07-29T08:39:06.606Z,27.36
2022-07-29T08:42:10.542Z,27.95
2022-07-29T08:45:13.225Z,28.88
2022-07-29T08:48:21.315Z,28.76
2022-07-29T08:51:25.700Z,28.88
2022-07-29T08:54:28.810Z,28.69
2022-07-29T08:57:32.599Z,28.47
2022-07-29T09:00:45.774Z,28.31
2022-07-29T09:03:48.774Z,28.44
2022-07-29T09:06:55.883Z,27.25
2022-07-29T09:09:58.379Z,27.85
2022-07-29T09:13:00.783Z,27.79
2022-07-29T09:16:08.581Z,27.82
2022-07-29T09:19:45.394Z,27.98
2022-07-29T09:22:51.785Z,27.26
2022-07-29T09:25:54.252Z,26.84
2022-07-29T09:28:56.660Z,26.35
2022-07-29T09:31:59.101Z,26.91
2022-07-29T09:35:22.116Z,26.87
2022-07-29T09:38:24.571Z,27.08
2022-07-29T09:41:28.028Z,27.48
2022-07-29T09:44:49.095Z,27.47
2022-07-29T09:47:51.630Z,27.44
2022-07-29T09:50:54.811Z,27.26
2022-07-29T09:53:57.120Z,26.10
2022-07-29T09:56:59.500Z,26.15
2022-07-29T10:00:07.728Z,25.93
2022-07-29T10:03:15.110Z,25.69
2022-07-29T10:06:17.640Z,25.98
2022-07-29T10:09:19.759Z,26.67
2022-07-29T10:12:25.474Z,26.68
2022-07-29T10:15:30.276Z,26.77
2022-07-29T10:18:33.495Z,25.74
2022-07-29T10:21:36.705Z,25.60
2022-07-29T10:24:39.644Z,26.13
2022-07-29T10:27:41.822Z,24.28
2022-07-29T10:30:46.241Z,24.59
2022-07-29T10:34:03.439Z,24.63
2022-07-29T10:37:25.750Z,24.77
2022-07-29T10:41:22.247Z,24.16
2022-07-29T10:44:28.058Z,23.53
2022-07-29T10:47:30.981Z,24.05
2022-07-29T10:50:58.113Z,24.03
2022-07-29T10:54:05.214Z,23.86
2022-07-29T10:57:40.507Z,23.96
2022-07-29T11:00:48.039Z,25.04
2022-07-29T11:03:57.225Z,25.09
2022-07-29T11:06:59.385Z,23.62
2022-07-29T11:10:15.264Z,24.26
2022-07-29T11:13:46.488Z,22.95
2022-07-29T11:17:06.430Z,23.13
2022-07-29T11:20:33.704Z,21.49
2022-07-29T11:23:37.888Z,22.21
2022-07-29T11:26:40.198Z,22.54
2022-07-29T11:29:53.495Z,22.25
2022-07-29T11:32:55.762Z,22.33
2022-07-29T11:36:16.859Z,22.22
2022-07-29T11:39:36.933Z,21.74
2022-07-29T11:42:42.114Z,22.16
2022-07-29T11:45:48.011Z,22.87
2022-07-29T11:48:50.732Z,23.01
2022-07-29T11:51:57.057Z,23.11
2022-07-29T11:55:09.605Z,22.52
2022-07-29T11:58:13.116Z,23.04
2022-07-29T12:01:18.253Z,22.77
2022-07-29T12:04:20.846Z,22.85
2022-07-29T12:07:32.658Z,23.06
2022-07-29T12:10:37.989Z,22.98
2022-07-29T12:13:40.820Z,22.39
2022-07-29T12:16:43.303Z,22.88
2022-07-29T12:19:46.229Z,22.89
2022-07-29T12:22:50.232Z,23.57
2022-07-29T12:25:53.075Z,23.05
2022-07-29T12:28:56.686Z,22.66
2022-07-29T12:31:59.425Z,23.52
2022-07-29T12:35:17.770Z,23.25
2022-07-29T12:38:20.527Z,23.33
2022-07-29T12:41:23.147Z,22.81
2022-07-29T12:44:26.375Z,23.65
2022-07-29T12:47:28.950Z,22.83
2022-07-29T12:50:32.892Z,24.01
2022-07-29T12:53:36.777Z,23.60
2022-07-29T12:56:44.113Z,23.66
2022-07-29T13:00:08.867Z,23.49
2022-07-29T13:03:10.990Z,23.86
2022-07-29T13:06:41.393Z,24.34
2022-07-29T13:09:48.504Z,24.31
2022-07-29T13:13:03.276Z,23.65
2022-07-29T13:16:08.973Z,24.38
2022-07-29T13:19:12.679Z,23.55
2022-07-29T13:22:22.805Z,24.03
2022-07-29T13:25:27.643Z,23.33
2022-07-29T13:28:29.942Z,23.38
2022-07-29T13:31:32.458Z,22.99
2022-07-29T13:34:34.570Z,23.50
2022-07-29T13:37:39.481Z,24.01
2022-07-29T13:40:42.726Z,24.06
2022-07-29T13:43:45.104Z,24.10
2022-07-29T13:46:47.207Z,23.92
2022-07-29T13:49:49.872Z,24.62
2022-07-29T13:52:52.278Z,24.07
2022-07-29T13:55:55.189Z,24.07
2022-07-29T13:58:58.119Z,24.21
2022-07-29T14:02:01.133Z,24.61
2022-07-29T14:05:08.254Z,25.04
2022-07-29T14:08:10.777Z,25.15
2022-07-29T14:11:13.267Z,24.61
2022-07-29T14:14:15.377Z,24.94
2022-07-29T14:17:17.941Z,24.88
2022-07-29T14:20:20.130Z,25.57
2022-07-29T14:23:22.506Z,25.97
2022-07-29T14:26:25.206Z,26.17
2022-07-29T14:29:37.483Z,25.73
2022-07-29T14:32:40.874Z,25.83
2022-07-29T14:35:43.332Z,25.95
2022-07-29T14:38:45.724Z,25.56
2022-07-29T14:41:48.162Z,25.06
2022-07-29T14:44:50.310Z,25.89
2022-07-29T14:47:57.217Z,25.21
2022-07-29T14:51:04.402Z,25.44
2022-07-29T14:54:07.463Z,25.24
2022-07-29T14:57:09.678Z,25.32
2022-07-29T15:00:12.586Z,24.86
2022-07-29T15:03:22.989Z,25.43
2022-07-29T15:06:28.027Z,25.36
2022-07-29T15:09:30.242Z,25.63
2022-07-29T15:12:33.326Z,25.90
2022-07-29T15:15:35.515Z,25.88
2022-07-29T15:18:39.218Z,25.18
2022-07-29T15:21:48.847Z,25.95
2022-07-29T15:24:51.691Z,26.84
2022-07-29T15:27:56.629Z,26.29
2022-07-29T15:31:01.611Z,26.18
2022-07-29T15:34:06.285Z,26.40
2022-07-29T15:37:09.003Z,26.08
2022-07-29T15:40:11.752Z,25.74
2022-07-29T15:43:14.396Z,25.77
2022-07-29T15:46:38.496Z,25.56
2022-07-29T15:49:47.999Z,25.40
2022-07-29T15:52:51.839Z,25.77
2022-07-29T15:55:54.338Z,25.89
2022-07-29T15:58:56.569Z,25.37
2022-07-29T16:01:59.723Z,27.27
2022-07-29T16:05:02.182Z,26.25
2022-07-29T16:08:04.414Z,26.94
2022-07-29T16:11:06.804Z,25.76
2022-07-29T16:14:10.896Z,26.30
2022-07-29T16:17:14.247Z,26.82
2022-07-29T16:20:17.261Z,25.99
2022-07-29T16:23:19.662Z,26.14
2022-07-29T16:26:21.771Z,26.55
2022-07-29T16:29:24.224Z,26.67
2022-07-29T16:32:26.704Z,26.47
2022-07-29T16:35:39.455Z,26.56
2022-07-29T16:38:47.060Z,26.59
2022-07-29T16:41:50.083Z,26.56
2022-07-29T16:44:52.411Z,26.64
2022-07-29T16:48:00.062Z,27.84
2022-07-29T16:51:02.593Z,27.49
2022-07-29T16:54:05.109Z,27.75
2022-07-29T16:57:07.242Z,28.41
2022-07-29T17:00:10.629Z,30.02
2022-07-29T17:03:13.442Z,29.89
2022-07-29T17:06:16.095Z,29.95
2022-07-29T17:09:18.269Z,31.31
2022-07-29T17:12:20.707Z,31.78
2022-07-29T17:15:22.908Z,32.27
2022-07-29T17:18:25.331Z,31.82
2022-07-29T17:21:28.056Z,32.19
2022-07-29T17:24:30.739Z,33.12
2022-07-29T17:27:33.371Z,33.55
2022-07-29T17:30:35.751Z,33.72
2022-07-29T17:33:38.148Z,33.94
2022-07-29T17:36:40.586Z,34.12
2022-07-29T17:39:43.494Z,34.54
2022-07-29T17:42:46.152Z,34.58
2022-07-29T17:45:49.470Z,34.92
2022-07-29T17:48:54.732Z,35.22
2022-07-29T17:52:00.770Z,35.39
2022-07-29T17:55:03.826Z,35.69
2022-07-29T17:58:08.783Z,36.09
2022-07-29T18:01:11.364Z,36.01
2022-07-29T18:04:15.511Z,36.09
2022-07-29T18:07:18.513Z,36.30
2022-07-29T18:10:21.133Z,36.44
2022-07-29T18:13:23.325Z,36.57
2022-07-29T18:16:25.846Z,36.61
2022-07-29T18:19:29.563Z,36.89
2022-07-29T18:22:31.958Z,36.94
2022-07-29T18:25:34.362Z,37.00
2022-07-29T18:28:36.773Z,37.35
2022-07-29T18:31:41.057Z,37.69
2022-07-29T18:34:43.590Z,37.80
2022-07-29T18:38:00.915Z,38.36
2022-07-29T18:41:04.782Z,38.71
2022-07-29T18:44:06.935Z,38.93
2022-07-29T18:47:11.923Z,39.68
2022-07-29T18:50:14.648Z,40.08
2022-07-29T18:53:17.405Z,40.59
2022-07-29T18:56:19.698Z,40.79
2022-07-29T18:59:22.105Z,40.95
2022-07-29T19:02:24.615Z,41.52
2022-07-29T19:05:27.162Z,41.55
2022-07-29T19:08:29.284Z,41.82
2022-07-29T19:11:31.649Z,42.19
2022-07-29T19:14:33.772Z,42.09
2022-07-29T19:17:36.259Z,42.01
2022-07-29T19:20:39.072Z,39.31
2022-07-29T19:24:06.024Z,38.10
2022-07-29T19:27:03.827Z,37.59
2022-07-29T19:30:09.276Z,37.20
2022-07-29T19:33:13.861Z,37.09
2022-07-29T19:36:16.440Z,37.05
2022-07-29T19:39:18.577Z,37.25
2022-07-29T19:42:37.534Z,37.83
2022-07-29T19:45:39.719Z,38.00
2022-07-29T19:48:42.231Z,38.39
2022-07-29T19:51:44.418Z,38.48
2022-07-29T19:54:46.842Z,38.96
2022-07-29T19:57:49.597Z,39.45
2022-07-29T20:00:52.362Z,39.37
2022-07-29T20:03:54.806Z,39.64
2022-07-29T20:07:01.273Z,39.43
2022-07-29T20:10:06.374Z,39.57
2022-07-29T20:13:08.519Z,39.94
2022-07-29T20:16:11.062Z,40.22
2022-07-29T20:19:13.591Z,40.38
2022-07-29T20:22:21.032Z,40.86
2022-07-29T20:25:24.163Z,40.77
2022-07-29T20:28:26.583Z,41.00
2022-07-29T20:31:30.449Z,41.22
2022-07-29T20:34:33.110Z,41.62
2022-07-29T20:37:35.378Z,42.05
2022-07-29T20:40:58.800Z,42.37
2022-07-29T20:44:02.150Z,42.73
2022-07-29T20:47:04.757Z,43.19
2022-07-29T20:50:07.503Z,43.64
2022-07-29T20:53:09.946Z,44.00
2022-07-29T20:56:12.522Z,44.09
2022-07-29T20:59:14.998Z,43.92
2022-07-29T21:02:17.279Z,44.37
2022-07-29T21:05:19.834Z,44.55
2022-07-29T21:08:22.291Z,44.89
2022-07-29T21:11:44.529Z,45.04
2022-07-29T21:14:48.054Z,45.34
2022-07-29T21:17:52.639Z,45.68
2022-07-29T21:20:55.352Z,46.24
2022-07-29T21:23:57.787Z,46.64
2022-07-29T21:27:21.284Z,46.84
2022-07-29T21:30:24.113Z,47.10
2022-07-29T21:33:28.174Z,47.46
2022-07-29T21:39:52.823Z,48.04
2022-07-29T21:42:55.190Z,48.61
2022-07-29T21:45:59.347Z,48.90
2022-07-29T21:49:01.917Z,48.89
2022-07-29T21:52:04.958Z,49.16
2022-07-29T21:55:07.994Z,49.55
2022-07-29T21:58:15.282Z,50.17
2022-07-29T22:01:18.296Z,50.41
2022-07-29T22:04:20.979Z,50.77
2022-07-29T22:07:23.218Z,51.02
2022-07-29T22:10:26.765Z,50.81
2022-07-29T22:13:28.911Z,51.06
2022-07-29T22:16:31.417Z,51.22
2022-07-29T22:19:33.625Z,51.56
2022-07-29T22:22:36.219Z,51.91
2022-07-29T22:25:38.347Z,52.35
2022-07-29T22:28:40.844Z,52.55
2022-07-29T22:31:43.698Z,52.96
2022-07-29T22:34:46.414Z,53.35
2022-07-29T22:37:48.547Z,53.41
2022-07-29T22:40:52.297Z,53.57
2022-07-29T22:43:54.959Z,53.78
2022-07-29T22:46:58.431Z,53.71
2022-07-29T22:50:01.187Z,53.85
2022-07-29T22:53:03.965Z,54.56
2022-07-29T22:56:06.278Z,54.99
2022-07-29T22:59:08.715Z,54.75
2022-07-29T23:02:10.882Z,55.21
2022-07-29T23:05:15.637Z,55.41
2022-07-29T23:08:19.157Z,55.41
2022-07-29T23:11:21.618Z,55.54
2022-07-29T23:14:23.787Z,55.73
2022-07-29T23:17:26.226Z,55.81
2022-07-29T23:20:28.406Z,56.32
2022-07-29T23:23:32.398Z,56.72
2022-07-29T23:26:36.681Z,56.94
2022-07-29T23:29:39.293Z,57.27
2022-07-29T23:32:41.394Z,57.77
2022-07-29T23:35:43.830Z,58.08
2022-07-29T23:38:46.610Z,58.02
2022-07-29T23:41:49.056Z,58.22
2022-07-29T23:44:51.243Z,58.12
2022-07-29T23:47:53.638Z,58.58
2022-07-29T23:50:55.737Z,58.86
2022-07-29T23:53:58.208Z,59.17
2022-07-29T23:57:01.118Z,59.29
